Terminal Aerodrome Forecast
Issued by NWS

Home | Current Version | Previous Version | Text Only | Print | Product List | Glossary On
Versions: 1 2 3 4 5 6 7 8 9 10 11 12 13 14 15 16 17 18 19 20 21 22
000
FTUS41 KBTV 180500
TAFSLK
TAF
KSLK 180537Z 1806/1906 00000KT P6SM SKC
     FM181100 17006KT P6SM BKN200
     FM190000 22006KT P6SM VCSH OVC040
     FM190400 25007KT P6SM -SHRA BKN025=

USA.gov is the U.S. government's official web portal to all federal, state and local government web resources and services.